createdAt,value
2022-08-14T00:01:59.311Z,16.20
2022-08-14T00:04:35.862Z,16.20
2022-08-14T00:07:11.430Z,16.10
2022-08-14T00:09:56.318Z,16.10
2022-08-14T00:12:34.112Z,16.10
2022-08-14T00:15:12.013Z,16.00
2022-08-14T00:17:47.207Z,15.90
2022-08-14T00:20:23.748Z,15.90
2022-08-14T00:22:57.993Z,15.80
2022-08-14T00:25:41.597Z,15.80
2022-08-14T00:28:15.225Z,15.80
2022-08-14T00:30:45.744Z,15.70
2022-08-14T00:33:16.573Z,15.70
2022-08-14T00:36:36.429Z,15.60
2022-08-14T00:38:32.177Z,15.70
2022-08-14T00:41:07.009Z,15.60
2022-08-14T00:43:38.442Z,15.70
2022-08-14T00:46:23.400Z,15.60
2022-08-14T00:48:58.293Z,15.60
2022-08-14T00:51:37.985Z,15.60
2022-08-14T00:54:16.716Z,15.50
2022-08-14T00:56:55.489Z,15.60
2022-08-14T00:59:25.231Z,15.70
2022-08-14T01:01:57.525Z,15.70
2022-08-14T01:04:37.963Z,15.60
2022-08-14T01:07:20.997Z,15.50
2022-08-14T01:10:01.906Z,15.60
2022-08-14T01:12:30.473Z,15.50
2022-08-14T01:15:02.818Z,15.60
2022-08-14T01:17:51.992Z,15.60
2022-08-14T01:20:40.999Z,15.70
2022-08-14T01:23:16.843Z,15.70
2022-08-14T01:25:51.405Z,15.70
2022-08-14T01:28:46.053Z,15.70
2022-08-14T01:31:09.850Z,15.70
2022-08-14T01:34:00.263Z,15.80
2022-08-14T01:36:29.061Z,15.70
2022-08-14T01:39:09.555Z,15.60
2022-08-14T01:41:42.406Z,15.60
2022-08-14T01:44:32.370Z,15.60
2022-08-14T01:47:22.263Z,15.60
2022-08-14T01:49:59.813Z,15.60
2022-08-14T01:52:57.783Z,15.50
2022-08-14T01:55:20.503Z,15.60
2022-08-14T01:58:01.884Z,15.60
2022-08-14T02:00:38.918Z,15.50
2022-08-14T02:03:06.953Z,15.40
2022-08-14T02:05:38.436Z,15.40
2022-08-14T02:08:09.847Z,15.30
2022-08-14T02:10:47.122Z,15.30
2022-08-14T02:13:17.339Z,15.20
2022-08-14T02:15:45.756Z,15.10
2022-08-14T02:18:16.365Z,15.10
2022-08-14T02:20:45.368Z,15.00
2022-08-14T02:23:14.493Z,15.00
2022-08-14T02:25:41.480Z,14.80
2022-08-14T02:28:23.172Z,14.80
2022-08-14T02:30:57.896Z,14.80
2022-08-14T02:33:29.415Z,14.80
2022-08-14T02:36:04.934Z,14.70
2022-08-14T02:38:48.672Z,14.60
2022-08-14T02:41:15.908Z,14.60
2022-08-14T02:43:48.234Z,14.70
2022-08-14T02:46:20.421Z,14.60
2022-08-14T02:49:02.919Z,14.40
2022-08-14T02:51:32.434Z,14.20
2022-08-14T02:54:01.928Z,14.10
2022-08-14T02:57:15.719Z,14.00
2022-08-14T02:59:18.780Z,14.00
2022-08-14T03:01:51.125Z,14.00
2022-08-14T03:04:22.056Z,14.00
2022-08-14T03:06:57.832Z,14.10
2022-08-14T03:10:26.092Z,14.10
2022-08-14T03:12:30.983Z,14.10
2022-08-14T03:14:59.580Z,14.20
2022-08-14T03:17:27.014Z,14.20
2022-08-14T03:19:59.166Z,14.10
2022-08-14T03:22:27.914Z,14.10
2022-08-14T03:24:57.011Z,14.00
2022-08-14T03:27:26.370Z,14.00
2022-08-14T03:29:54.322Z,14.00
2022-08-14T03:32:21.255Z,13.90
2022-08-14T03:34:58.598Z,13.90
2022-08-14T03:37:28.953Z,13.90
2022-08-14T03:40:18.283Z,13.90
2022-08-14T03:42:46.456Z,13.90
2022-08-14T03:45:25.083Z,13.90
2022-08-14T03:48:04.823Z,13.80
2022-08-14T03:50:38.321Z,13.80
2022-08-14T03:53:05.717Z,13.80
2022-08-14T03:55:34.477Z,13.80
2022-08-14T03:58:01.411Z,13.90
2022-08-14T04:00:40.392Z,13.90
2022-08-14T04:03:16.479Z,13.80
2022-08-14T04:05:48.942Z,13.80
2022-08-14T04:08:29.441Z,13.80
2022-08-14T04:11:01.329Z,13.80
2022-08-14T04:13:31.719Z,13.80
2022-08-14T04:16:04.773Z,13.70
2022-08-14T04:18:33.957Z,13.70
2022-08-14T04:21:01.357Z,13.70
2022-08-14T04:23:29.739Z,13.60
2022-08-14T04:26:01.771Z,13.50
2022-08-14T04:29:05.274Z,13.40
2022-08-14T04:32:56.380Z,13.40
2022-08-14T04:34:08.013Z,13.40
2022-08-14T04:36:59.168Z,13.40
2022-08-14T04:39:46.820Z,13.40
2022-08-14T04:42:32.626Z,13.50
2022-08-14T04:45:00.619Z,13.50
2022-08-14T04:47:46.775Z,13.50
2022-08-14T04:50:33.649Z,13.60
2022-08-14T04:53:07.779Z,13.60
2022-08-14T04:55:37.962Z,13.70
2022-08-14T04:58:06.223Z,13.70
2022-08-14T05:00:33.641Z,13.70
2022-08-14T05:03:03.486Z,13.70
2022-08-14T05:05:35.233Z,13.70
2022-08-14T05:08:09.614Z,13.70
2022-08-14T05:10:41.002Z,13.70
2022-08-14T05:13:15.450Z,13.60
2022-08-14T05:15:42.794Z,13.60
2022-08-14T05:18:17.478Z,13.60
2022-08-14T05:21:55.893Z,13.60
2022-08-14T05:23:51.957Z,13.60
2022-08-14T05:26:21.734Z,13.60
2022-08-14T05:28:49.153Z,13.50
2022-08-14T05:31:20.790Z,13.40
2022-08-14T05:33:56.485Z,13.40
2022-08-14T05:36:25.248Z,13.40
2022-08-14T05:38:54.228Z,13.40
2022-08-14T05:41:22.565Z,13.30
2022-08-14T05:43:51.170Z,13.30
2022-08-14T05:46:22.824Z,13.20
2022-08-14T05:48:57.198Z,13.20
2022-08-14T05:51:25.558Z,13.00
2022-08-14T05:54:00.030Z,13.00
2022-08-14T05:56:29.098Z,13.00
2022-08-14T05:58:56.351Z,13.10
2022-08-14T06:01:23.596Z,13.20
2022-08-14T06:03:50.914Z,13.40
2022-08-14T06:06:21.696Z,13.50
2022-08-14T06:08:48.848Z,13.50
2022-08-14T06:11:20.371Z,13.60
2022-08-14T06:13:54.996Z,13.60
2022-08-14T06:16:22.304Z,13.70
2022-08-14T06:18:52.730Z,13.70
2022-08-14T06:21:23.319Z,13.70
2022-08-14T06:23:51.431Z,13.70
2022-08-14T06:26:20.667Z,13.70
2022-08-14T06:28:51.865Z,13.80
2022-08-14T06:31:20.817Z,13.90
2022-08-14T06:35:09.921Z,14.00
2022-08-14T06:36:36.744Z,14.10
2022-08-14T06:39:03.917Z,14.20
2022-08-14T06:41:56.993Z,14.30
2022-08-14T06:44:22.137Z,14.50
2022-08-14T06:46:59.331Z,14.60
2022-08-14T06:49:27.307Z,14.80
2022-08-14T06:51:57.431Z,14.90
2022-08-14T06:54:31.760Z,14.90
2022-08-14T06:56:59.073Z,15.00
2022-08-14T06:59:26.536Z,15.20
2022-08-14T07:02:17.752Z,15.20
2022-08-14T07:05:05.413Z,15.30
2022-08-14T07:07:40.361Z,15.40
2022-08-14T07:10:16.766Z,15.50
2022-08-14T07:13:01.015Z,15.70
2022-08-14T07:15:32.498Z,15.90
2022-08-14T07:18:00.403Z,16.20
2022-08-14T07:20:30.699Z,16.40
2022-08-14T07:23:07.788Z,16.60
2022-08-14T07:25:38.147Z,16.70
2022-08-14T07:28:25.562Z,16.90
2022-08-14T07:31:04.267Z,17.20
2022-08-14T07:33:35.355Z,17.40
2022-08-14T07:36:09.065Z,17.70
2022-08-14T07:38:54.644Z,18.00
2022-08-14T07:41:23.065Z,18.00
2022-08-14T07:43:55.627Z,18.40
2022-08-14T07:46:29.358Z,18.50
2022-08-14T07:48:58.494Z,18.70
2022-08-14T07:51:34.508Z,19.00
2022-08-14T07:54:09.849Z,19.10
2022-08-14T07:56:46.741Z,19.30
2022-08-14T07:59:18.502Z,19.30
2022-08-14T08:01:51.058Z,19.10
2022-08-14T08:04:24.959Z,19.10
2022-08-14T08:06:53.246Z,19.40
2022-08-14T08:09:32.539Z,19.70
2022-08-14T08:12:09.325Z,19.90
2022-08-14T08:14:56.986Z,19.90
2022-08-14T08:17:34.913Z,19.50
2022-08-14T08:20:16.830Z,19.60
2022-08-14T08:22:49.872Z,19.90
2022-08-14T08:25:25.151Z,20.20
2022-08-14T08:27:58.941Z,20.30
2022-08-14T08:30:27.097Z,20.50
2022-08-14T08:32:58.271Z,20.90
2022-08-14T08:35:46.468Z,21.30
2022-08-14T08:39:14.442Z,21.60
2022-08-14T08:41:05.579Z,21.80
2022-08-14T08:43:39.047Z,22.30
2022-08-14T08:46:06.096Z,22.60
2022-08-14T08:48:54.201Z,22.90
2022-08-14T08:51:36.263Z,23.20
2022-08-14T08:54:14.986Z,23.40
2022-08-14T08:56:47.087Z,23.70
2022-08-14T08:59:30.948Z,23.80
2022-08-14T09:02:04.185Z,23.90
2022-08-14T09:04:45.901Z,24.20
2022-08-14T09:07:27.028Z,24.30
2022-08-14T09:09:58.730Z,24.70
2022-08-14T09:12:29.839Z,24.60
2022-08-14T09:15:12.309Z,24.30
2022-08-14T09:17:41.252Z,24.00
2022-08-14T09:20:11.678Z,24.30
2022-08-14T09:22:42.567Z,24.60
2022-08-14T09:25:19.533Z,24.90
2022-08-14T09:27:47.471Z,25.10
2022-08-14T09:30:32.529Z,25.30
2022-08-14T09:33:11.529Z,25.60
2022-08-14T09:36:18.477Z,25.80
2022-08-14T09:39:24.972Z,26.10
2022-08-14T09:42:33.434Z,26.30
2022-08-14T09:45:19.835Z,26.40
2022-08-14T09:47:55.132Z,26.60
2022-08-14T09:50:32.967Z,27.00
2022-08-14T09:53:06.013Z,27.10
2022-08-14T09:55:45.907Z,27.20
2022-08-14T09:58:22.778Z,27.60
2022-08-14T10:00:57.458Z,27.70
2022-08-14T10:03:36.794Z,27.70
2022-08-14T10:06:12.078Z,28.00
2022-08-14T10:08:51.923Z,28.00
2022-08-14T10:11:35.131Z,28.10
2022-08-14T10:14:34.751Z,28.40
2022-08-14T10:17:06.459Z,28.50
2022-08-14T10:19:36.556Z,28.60
2022-08-14T10:23:15.335Z,28.80
2022-08-14T10:25:00.521Z,28.70
2022-08-14T10:27:28.691Z,28.80
2022-08-14T10:30:01.078Z,28.90
2022-08-14T10:32:51.166Z,29.10
2022-08-14T10:35:17.036Z,29.20
2022-08-14T10:37:48.197Z,29.20
2022-08-14T10:40:43.378Z,29.40
2022-08-14T10:43:25.535Z,29.40
2022-08-14T10:45:59.851Z,29.20
2022-08-14T10:48:36.803Z,29.30
2022-08-14T10:51:08.704Z,29.30
2022-08-14T10:53:39.794Z,29.30
2022-08-14T10:56:22.045Z,29.70
2022-08-14T10:59:08.763Z,29.60
2022-08-14T11:01:41.216Z,29.80
2022-08-14T11:04:26.183Z,29.80
2022-08-14T11:06:56.834Z,29.80
2022-08-14T11:09:26.264Z,29.80
2022-08-14T11:12:34.596Z,29.90
2022-08-14T11:15:03.335Z,29.80
2022-08-14T11:17:36.428Z,30.00
2022-08-14T11:20:07.067Z,30.10
2022-08-14T11:23:02.915Z,30.10
2022-08-14T11:25:43.350Z,30.20
2022-08-14T11:28:17.173Z,30.10
2022-08-14T11:30:54.074Z,30.10
2022-08-14T11:33:31.261Z,30.00
2022-08-14T11:36:01.847Z,29.80
2022-08-14T11:38:35.935Z,29.80
2022-08-14T11:41:06.316Z,29.40
2022-08-14T11:43:55.943Z,29.60
2022-08-14T11:46:30.652Z,29.50
2022-08-14T11:49:06.638Z,29.80
2022-08-14T11:51:36.027Z,29.80
2022-08-14T11:54:19.624Z,29.90
2022-08-14T11:56:50.722Z,29.80
2022-08-14T11:59:20.295Z,29.50
2022-08-14T12:01:55.045Z,29.40
2022-08-14T12:04:33.328Z,29.30
2022-08-14T12:07:01.696Z,29.40
2022-08-14T12:09:36.814Z,29.30
2022-08-14T12:12:35.619Z,29.40
2022-08-14T12:15:06.851Z,29.50
2022-08-14T12:17:47.534Z,29.40
2022-08-14T12:20:30.012Z,29.40
2022-08-14T12:23:05.602Z,29.40
2022-08-14T12:25:34.988Z,29.30
2022-08-14T12:28:10.502Z,29.30
2022-08-14T12:30:56.663Z,29.40
2022-08-14T12:33:31.160Z,29.50
2022-08-14T12:36:08.368Z,29.50
2022-08-14T12:38:44.179Z,29.70
2022-08-14T12:41:21.225Z,30.10
2022-08-14T12:43:53.778Z,30.00
2022-08-14T12:46:46.821Z,29.80
2022-08-14T12:49:18.946Z,29.80
2022-08-14T12:52:00.616Z,29.90
2022-08-14T12:54:29.135Z,30.20
2022-08-14T12:57:09.049Z,30.00
2022-08-14T12:59:42.492Z,30.00
2022-08-14T13:02:25.521Z,29.70
2022-08-14T13:04:55.925Z,29.00
2022-08-14T13:07:26.538Z,28.90
2022-08-14T13:09:59.208Z,28.80
2022-08-14T13:12:32.308Z,28.60
2022-08-14T13:15:08.835Z,28.80
2022-08-14T13:17:51.041Z,28.90
2022-08-14T13:20:23.280Z,29.60
2022-08-14T13:22:53.372Z,29.70
2022-08-14T13:25:24.503Z,29.70
2022-08-14T13:27:57.674Z,29.80
2022-08-14T13:30:26.515Z,29.90
2022-08-14T13:32:57.749Z,29.80
2022-08-14T13:35:25.908Z,29.80
2022-08-14T13:37:54.089Z,30.20
2022-08-14T13:40:26.362Z,30.10
2022-08-14T13:42:56.657Z,30.00
2022-08-14T13:45:34.054Z,30.10
2022-08-14T13:48:19.167Z,30.00
2022-08-14T13:51:01.613Z,29.80
2022-08-14T13:53:33.873Z,29.90
2022-08-14T13:56:02.797Z,29.70
2022-08-14T13:58:35.683Z,29.30
2022-08-14T14:01:04.330Z,29.40
2022-08-14T14:03:38.277Z,29.40
2022-08-14T14:06:07.063Z,29.50
2022-08-14T14:08:47.532Z,29.50
2022-08-14T14:11:17.205Z,29.50
2022-08-14T14:13:46.917Z,29.40
2022-08-14T14:16:26.283Z,29.70
2022-08-14T14:19:09.635Z,29.70
2022-08-14T14:21:40.806Z,29.80
2022-08-14T14:24:14.865Z,29.90
2022-08-14T14:26:50.052Z,29.40
2022-08-14T14:29:26.357Z,29.40
2022-08-14T14:31:53.758Z,29.00
2022-08-14T14:34:30.000Z,28.80
2022-08-14T14:37:02.841Z,28.40
2022-08-14T14:39:37.505Z,28.20
2022-08-14T14:42:31.667Z,28.10
2022-08-14T14:45:15.564Z,28.10
2022-08-14T14:47:45.215Z,28.00
2022-08-14T14:50:13.857Z,28.10
2022-08-14T14:52:44.879Z,28.10
2022-08-14T14:55:13.604Z,27.60
2022-08-14T14:57:52.052Z,27.60
2022-08-14T15:00:22.020Z,27.50
2022-08-14T15:02:57.721Z,27.40
2022-08-14T15:05:28.324Z,27.20
2022-08-14T15:07:55.662Z,27.00
2022-08-14T15:10:27.439Z,26.60
2022-08-14T15:13:03.466Z,26.50
2022-08-14T15:15:32.765Z,26.50
2022-08-14T15:18:01.071Z,26.50
2022-08-14T15:20:30.361Z,26.50
2022-08-14T15:23:01.102Z,26.40
2022-08-14T15:25:38.740Z,26.40
2022-08-14T15:28:12.778Z,26.60
2022-08-14T15:30:41.759Z,26.30
2022-08-14T15:33:09.393Z,26.20
2022-08-14T15:35:44.987Z,25.90
2022-08-14T15:38:17.521Z,25.70
2022-08-14T15:40:51.453Z,25.40
2022-08-14T15:43:27.398Z,25.40
2022-08-14T15:45:58.356Z,25.20
2022-08-14T15:48:25.755Z,25.00
2022-08-14T15:50:56.803Z,24.80
2022-08-14T15:53:24.712Z,24.60
2022-08-14T15:55:53.458Z,24.40
2022-08-14T15:58:21.772Z,24.30
2022-08-14T16:01:08.241Z,24.50
2022-08-14T16:03:39.881Z,24.50
2022-08-14T16:06:17.728Z,24.60
2022-08-14T16:08:58.606Z,24.70
2022-08-14T16:11:28.767Z,24.50
2022-08-14T16:14:01.027Z,24.30
2022-08-14T16:16:49.544Z,24.20
2022-08-14T16:19:20.135Z,24.30
2022-08-14T16:22:01.426Z,24.30
2022-08-14T16:24:57.828Z,24.30
2022-08-14T16:27:37.242Z,24.10
2022-08-14T16:30:25.379Z,24.00
2022-08-14T16:33:05.553Z,24.00
2022-08-14T16:38:45.758Z,24.00
2022-08-14T16:40:25.409Z,24.00
2022-08-14T16:41:18.369Z,23.80
2022-08-14T16:43:59.360Z,23.60
2022-08-14T16:46:29.532Z,23.60
2022-08-14T16:48:58.948Z,23.40
2022-08-14T16:51:28.049Z,23.40
2022-08-14T16:53:56.978Z,23.30
2022-08-14T16:56:30.913Z,23.20
2022-08-14T16:59:12.510Z,23.20
2022-08-14T17:01:45.847Z,23.10
2022-08-14T17:04:25.022Z,23.20
2022-08-14T17:06:58.204Z,23.10
2022-08-14T17:09:28.419Z,23.10
2022-08-14T17:11:58.612Z,23.20
2022-08-14T17:14:48.485Z,23.10
2022-08-14T17:17:15.547Z,23.00
2022-08-14T17:19:42.624Z,22.90
2022-08-14T17:22:14.017Z,22.80
2022-08-14T17:24:55.995Z,22.70
2022-08-14T17:27:28.724Z,22.70
2022-08-14T17:29:57.866Z,22.70
2022-08-14T17:32:44.037Z,22.60
2022-08-14T17:35:26.753Z,22.50
2022-08-14T17:38:38.851Z,22.30
2022-08-14T17:41:22.154Z,22.30
2022-08-14T17:43:55.173Z,22.10
2022-08-14T17:46:43.504Z,22.00
2022-08-14T17:49:18.033Z,21.90
2022-08-14T17:52:18.248Z,21.90
2022-08-14T17:54:52.926Z,21.70
2022-08-14T17:57:28.311Z,21.70
2022-08-14T17:59:57.232Z,21.60
2022-08-14T18:02:30.860Z,21.50
2022-08-14T18:05:02.772Z,21.50
2022-08-14T18:07:59.695Z,21.40
2022-08-14T18:10:52.322Z,21.40
2022-08-14T18:13:10.532Z,21.40
2022-08-14T18:15:41.464Z,21.40
2022-08-14T18:18:11.890Z,21.40
2022-08-14T18:21:24.050Z,21.40
2022-08-14T18:23:28.212Z,21.40
2022-08-14T18:25:57.197Z,21.30
2022-08-14T18:28:51.581Z,21.30
2022-08-14T18:31:22.990Z,21.40
2022-08-14T18:34:11.872Z,21.40
2022-08-14T18:37:03.747Z,21.40
2022-08-14T18:39:51.716Z,21.50
2022-08-14T18:42:34.869Z,21.40
2022-08-14T18:45:12.901Z,21.30
2022-08-14T18:48:14.455Z,21.20
2022-08-14T18:50:30.723Z,21.20
2022-08-14T18:53:10.754Z,21.20
2022-08-14T18:55:53.544Z,21.20
2022-08-14T18:58:28.072Z,21.10
2022-08-14T19:01:00.256Z,21.10
2022-08-14T19:03:37.096Z,21.00
2022-08-14T19:06:05.987Z,21.00
2022-08-14T19:08:50.429Z,21.00
2022-08-14T19:11:37.013Z,20.90
2022-08-14T19:14:06.539Z,20.80
2022-08-14T19:16:35.824Z,20.80
2022-08-14T19:19:09.470Z,20.70
2022-08-14T19:21:38.812Z,20.60
2022-08-14T19:24:27.448Z,20.60
2022-08-14T19:27:16.689Z,20.50
2022-08-14T19:29:47.972Z,20.60
2022-08-14T19:32:36.689Z,20.60
2022-08-14T19:35:16.956Z,20.50
2022-08-14T19:37:54.138Z,20.50
2022-08-14T19:40:42.028Z,20.50
2022-08-14T19:43:22.699Z,20.50
2022-08-14T19:46:38.585Z,20.40
2022-08-14T19:48:58.195Z,20.40
2022-08-14T19:51:25.697Z,20.30
2022-08-14T19:54:13.255Z,20.20
2022-08-14T19:56:45.248Z,20.10
2022-08-14T19:59:18.402Z,20.00
2022-08-14T20:01:51.055Z,19.90
2022-08-14T20:04:46.261Z,19.90
2022-08-14T20:07:59.890Z,19.80
2022-08-14T20:11:10.448Z,19.70
2022-08-14T20:13:32.455Z,19.60
2022-08-14T20:16:12.133Z,19.50
2022-08-14T20:18:50.805Z,19.40
2022-08-14T20:21:21.684Z,19.30
2022-08-14T20:23:49.365Z,19.20
2022-08-14T20:26:31.466Z,19.10
2022-08-14T20:29:05.334Z,19.00
2022-08-14T20:31:36.971Z,19.00
2022-08-14T20:34:24.929Z,18.90
2022-08-14T20:37:12.162Z,18.80
2022-08-14T20:39:54.188Z,18.70
2022-08-14T20:42:49.459Z,18.70
2022-08-14T20:45:24.291Z,18.60
2022-08-14T20:48:07.225Z,18.60
2022-08-14T20:50:36.515Z,18.50
2022-08-14T20:53:33.415Z,18.40
2022-08-14T20:56:28.338Z,18.30
2022-08-14T20:58:57.561Z,18.30
2022-08-14T21:01:24.613Z,18.20
2022-08-14T21:04:01.720Z,18.10
2022-08-14T21:07:23.013Z,18.10
2022-08-14T21:10:03.461Z,18.00
2022-08-14T21:12:33.830Z,18.00
2022-08-14T21:15:05.030Z,18.00
2022-08-14T21:17:38.495Z,18.00
2022-08-14T21:20:25.234Z,18.00
2022-08-14T21:22:53.631Z,18.00
2022-08-14T21:25:23.755Z,17.90
2022-08-14T21:27:57.070Z,17.90
2022-08-14T21:30:46.558Z,17.80
2022-08-14T21:33:12.353Z,17.80
2022-08-14T21:35:46.790Z,17.70
2022-08-14T21:38:16.890Z,17.70
2022-08-14T21:40:48.689Z,17.60
2022-08-14T21:43:20.853Z,17.50
2022-08-14T21:45:53.506Z,17.50
2022-08-14T21:48:30.307Z,17.50
2022-08-14T21:51:53.383Z,17.50
2022-08-14T21:53:58.555Z,17.40
2022-08-14T21:56:38.901Z,17.40
2022-08-14T21:59:18.097Z,17.30
2022-08-14T22:02:00.980Z,17.20
2022-08-14T22:04:33.391Z,17.20
2022-08-14T22:07:07.235Z,17.20
2022-08-14T22:09:36.278Z,17.10
2022-08-14T22:12:06.950Z,17.00
2022-08-14T22:14:43.328Z,17.10
2022-08-14T22:17:16.383Z,17.10
2022-08-14T22:19:54.264Z,17.10
2022-08-14T22:22:26.164Z,17.10
2022-08-14T22:25:00.150Z,17.10
2022-08-14T22:27:32.174Z,17.10
2022-08-14T22:30:00.548Z,17.10
2022-08-14T22:32:35.127Z,17.10
2022-08-14T22:35:15.601Z,17.00
2022-08-14T22:37:44.516Z,17.10
2022-08-14T22:40:45.950Z,17.00
2022-08-14T22:43:08.110Z,17.00
2022-08-14T22:45:37.660Z,16.90
2022-08-14T22:48:10.798Z,17.00
2022-08-14T22:50:48.790Z,16.80
2022-08-14T22:53:16.213Z,16.80
2022-08-14T22:55:43.687Z,16.70
2022-08-14T22:58:11.469Z,16.60
2022-08-14T23:00:45.585Z,16.60
2022-08-14T23:03:17.277Z,16.60
2022-08-14T23:05:52.935Z,16.50
2022-08-14T23:08:58.739Z,16.50
2022-08-14T23:11:10.507Z,16.50
2022-08-14T23:13:39.206Z,16.40
2022-08-14T23:16:06.937Z,16.50
2022-08-14T23:18:34.658Z,16.40
2022-08-14T23:21:01.965Z,16.40
2022-08-14T23:23:28.935Z,16.30
2022-08-14T23:26:00.158Z,16.30
2022-08-14T23:28:57.079Z,16.40
2022-08-14T23:31:35.903Z,16.40
2022-08-14T23:34:10.803Z,16.40
2022-08-14T23:36:53.281Z,16.40
2022-08-14T23:39:24.493Z,16.40
2022-08-14T23:41:56.961Z,16.40
2022-08-14T23:44:32.234Z,16.50
2022-08-14T23:47:11.832Z,16.50
2022-08-14T23:50:03.454Z,16.60
2022-08-14T23:52:55.484Z,16.70
2022-08-14T23:55:28.482Z,16.60
2022-08-14T23:57:57.612Z,16.60
